Vancouver, Canada
Current Conditions -  °F | °C
As of 11:00 AM on Thursday 23 Oct 2014 (Local Time) from CYVR Reporting Station
Light Rain Light Rain  
Wind Chill: 52°   Ceiling: 5200
Heat Index: 52°   Visibility: 15mi
Dew Point: 50°   Wind: 7mph
Humidity: 94%   Direction: 100°E
Pressure: 29.71"   Gusts: NA
Location:  49.26°N, 123.11°W
Report Text: CYVR 231800Z 10006KT 15SM -RA FEW003 FEW009 SCT013 BKN052 OVC062 11/10 A2971 RMK SF1SF1SC2SC2SC2 SLP062
Loading
Personal Weather Stations






























Interactive Weather Map
Tropical Storm Tracking
New forecast layout! Learn more

10-Day Weather Forecast

Advertisements
Track Severe Weather on mobile